createdAt,value
2018-10-01T00:02:11.541Z,6.50
2018-10-01T00:04:41.193Z,4.07
2018-10-01T00:07:12.508Z,6.10
2018-10-01T00:09:42.797Z,7.73
2018-10-01T00:12:14.996Z,7.87
2018-10-01T00:14:45.613Z,5.83
2018-10-01T00:17:16.579Z,7.57
2018-10-01T00:19:51.355Z,6.90
2018-10-01T00:22:26.386Z,5.90
2018-10-01T00:24:56.109Z,4.30
2018-10-01T00:27:26.372Z,7.60
2018-10-01T00:29:57.512Z,5.00
2018-10-01T00:32:27.799Z,9.23
2018-10-01T00:34:57.870Z,6.20
2018-10-01T00:37:27.428Z,5.57
2018-10-01T00:39:56.972Z,6.67
2018-10-01T00:42:26.575Z,8.17
2018-10-01T00:44:56.215Z,8.00
2018-10-01T00:47:25.753Z,9.07
2018-10-01T00:49:55.373Z,6.17
2018-10-01T00:52:25.473Z,4.80
2018-10-01T00:54:55.026Z,7.20
2018-10-01T00:57:25.226Z,4.93
2018-10-01T00:59:55.360Z,5.70
2018-10-01T01:02:25.609Z,4.40
2018-10-01T01:04:55.131Z,6.00
2018-10-01T01:07:25.512Z,7.20
2018-10-01T01:09:55.041Z,5.03
2018-10-01T01:12:25.192Z,4.97
2018-10-01T01:14:56.107Z,5.00
2018-10-01T01:17:25.592Z,5.57
2018-10-01T01:19:55.811Z,4.23
2018-10-01T01:22:25.389Z,6.20
2018-10-01T01:24:56.250Z,6.20
2018-10-01T01:27:26.352Z,6.10
2018-10-01T01:29:55.950Z,5.30
2018-10-01T01:32:26.453Z,4.10
2018-10-01T01:34:57.799Z,5.20
2018-10-01T01:37:28.132Z,6.00
2018-10-01T01:39:58.838Z,8.53
2018-10-01T01:42:29.261Z,7.23
2018-10-01T01:44:59.851Z,4.93
2018-10-01T01:47:30.357Z,5.87
2018-10-01T01:50:00.044Z,5.83
2018-10-01T01:52:30.623Z,6.80
2018-10-01T01:55:01.563Z,5.47
2018-10-01T01:57:31.721Z,5.93
2018-10-01T02:00:02.613Z,5.60
2018-10-01T02:02:33.450Z,4.73
2018-10-01T02:05:04.075Z,7.43
2018-10-01T02:07:34.655Z,7.23
2018-10-01T02:10:04.360Z,9.27
2018-10-01T02:12:34.640Z,6.97
2018-10-01T02:15:06.843Z,9.00
2018-10-01T02:17:36.470Z,7.80
2018-10-01T02:20:08.368Z,6.90
2018-10-01T02:22:39.541Z,7.00
2018-10-01T02:25:09.681Z,5.77
2018-10-01T02:27:40.752Z,6.73
2018-10-01T02:30:10.605Z,4.97
2018-10-01T02:32:44.366Z,7.30
2018-10-01T02:35:15.216Z,4.97
2018-10-01T02:37:45.791Z,6.13
2018-10-01T02:40:16.720Z,5.07
2018-10-01T02:42:47.046Z,6.43
2018-10-01T02:45:17.823Z,7.03
2018-10-01T02:47:47.733Z,4.77
2018-10-01T02:50:19.300Z,7.83
2018-10-01T02:52:54.696Z,7.07
2018-10-01T02:55:25.849Z,11.33
2018-10-01T02:57:55.587Z,6.40
2018-10-01T03:00:25.245Z,7.00
2018-10-01T03:02:56.446Z,6.87
2018-10-01T03:05:26.820Z,11.23
2018-10-01T03:07:58.099Z,8.83
2018-10-01T03:10:27.814Z,5.40
2018-10-01T03:12:57.517Z,5.80
2018-10-01T03:15:27.858Z,9.87
2018-10-01T03:18:02.547Z,6.53
2018-10-01T03:20:32.811Z,5.90
2018-10-01T03:23:02.813Z,5.83
2018-10-01T03:25:33.738Z,9.43
2018-10-01T03:28:04.236Z,6.13
2018-10-01T03:30:39.549Z,6.70
2018-10-01T03:33:09.430Z,12.67
2018-10-01T03:35:40.880Z,5.83
2018-10-01T03:38:11.252Z,7.10
2018-10-01T03:40:41.390Z,8.07
2018-10-01T03:43:12.372Z,7.73
2018-10-01T03:45:42.732Z,7.90
2018-10-01T03:48:13.415Z,6.10
2018-10-01T03:50:44.497Z,10.30
2018-10-01T03:53:18.574Z,10.30
2018-10-01T03:55:49.470Z,9.13
2018-10-01T03:58:22.107Z,6.03
2018-10-01T04:00:51.922Z,5.70
2018-10-01T04:03:23.984Z,10.77
2018-10-01T04:05:54.466Z,11.47
2018-10-01T04:08:25.094Z,7.90
2018-10-01T04:10:56.474Z,7.70
2018-10-01T04:13:25.950Z,7.13
2018-10-01T04:15:56.548Z,13.43
2018-10-01T04:18:27.365Z,8.87
2018-10-01T04:20:57.894Z,10.00
2018-10-01T04:23:27.782Z,13.03
2018-10-01T04:25:58.882Z,12.50
2018-10-01T04:28:29.173Z,6.33
2018-10-01T04:30:59.541Z,8.03
2018-10-01T04:33:29.188Z,10.43
2018-10-01T04:35:59.104Z,7.37
2018-10-01T04:38:31.123Z,13.90
2018-10-01T04:41:02.682Z,10.57
2018-10-01T04:43:32.914Z,9.30
2018-10-01T04:46:07.965Z,8.13
2018-10-01T04:48:41.633Z,9.77
2018-10-01T04:51:11.381Z,7.20
2018-10-01T04:53:41.827Z,11.23
2018-10-01T04:56:14.153Z,16.73
2018-10-01T04:58:44.518Z,16.57
2018-10-01T05:01:15.253Z,14.50
2018-10-01T05:03:44.924Z,10.73
2018-10-01T05:06:20.193Z,6.93
2018-10-01T05:08:49.919Z,10.83
2018-10-01T05:11:20.140Z,24.90
2018-10-01T05:13:50.327Z,14.73
2018-10-01T05:16:19.874Z,10.57
2018-10-01T05:18:50.175Z,7.43
2018-10-01T05:21:20.495Z,11.10
2018-10-01T05:23:51.447Z,9.27
2018-10-01T05:26:21.872Z,10.90
2018-10-01T05:28:51.559Z,9.63
2018-10-01T05:31:21.375Z,14.97
2018-10-01T05:33:51.426Z,11.57
2018-10-01T05:36:21.556Z,11.00
2018-10-01T05:38:52.386Z,9.03
2018-10-01T05:41:22.927Z,11.80
2018-10-01T05:43:56.153Z,12.40
2018-10-01T05:46:26.028Z,10.27
2018-10-01T05:48:58.054Z,14.07
2018-10-01T05:51:28.383Z,11.23
2018-10-01T05:53:58.101Z,14.20
2018-10-01T05:56:28.699Z,9.80
2018-10-01T05:58:59.141Z,14.70
2018-10-01T06:01:29.422Z,9.70
2018-10-01T06:04:05.678Z,9.43
2018-10-01T06:06:36.282Z,13.10
2018-10-01T06:09:10.184Z,11.30
2018-10-01T06:11:41.492Z,8.97
2018-10-01T06:14:12.868Z,16.03
2018-10-01T06:16:49.218Z,8.83
2018-10-01T06:19:19.514Z,5.80
2018-10-01T06:21:49.155Z,9.13
2018-10-01T06:24:18.692Z,10.17
2018-10-01T06:26:49.584Z,13.03
2018-10-01T06:29:19.922Z,7.27
2018-10-01T06:31:50.292Z,7.57
2018-10-01T06:34:20.349Z,10.53
2018-10-01T06:36:49.807Z,21.03
2018-10-01T06:39:19.301Z,11.17
2018-10-01T06:41:49.682Z,16.07
2018-10-01T06:44:19.411Z,12.10
2018-10-01T06:46:49.572Z,9.73
2018-10-01T06:49:19.152Z,10.43
2018-10-01T06:51:49.160Z,10.30
2018-10-01T06:54:19.526Z,7.43
2018-10-01T06:56:50.167Z,10.73
2018-10-01T06:59:20.390Z,12.50
2018-10-01T07:01:50.361Z,14.37
2018-10-01T07:04:21.100Z,11.77
2018-10-01T07:06:51.873Z,10.53
2018-10-01T07:09:21.738Z,14.13
2018-10-01T07:11:56.997Z,9.10
2018-10-01T07:14:31.105Z,11.10
2018-10-01T07:17:03.339Z,8.10
2018-10-01T07:19:33.116Z,9.90
2018-10-01T07:22:03.995Z,11.80
2018-10-01T07:24:34.367Z,6.93
2018-10-01T07:27:04.536Z,9.40
2018-10-01T07:29:34.086Z,8.80
2018-10-01T07:32:06.187Z,12.00
2018-10-01T07:34:35.693Z,8.83
2018-10-01T07:37:06.680Z,8.70
2018-10-01T07:39:37.579Z,14.43
2018-10-01T07:42:08.609Z,14.30
2018-10-01T07:44:43.762Z,17.33
2018-10-01T07:47:13.899Z,9.70
2018-10-01T07:49:44.007Z,11.83
2018-10-01T07:52:18.289Z,10.23
2018-10-01T07:54:49.459Z,9.87
2018-10-01T07:57:19.303Z,15.37
2018-10-01T07:59:49.621Z,8.20
2018-10-01T08:02:19.701Z,7.57
2018-10-01T08:04:49.783Z,8.90
2018-10-01T08:07:20.461Z,10.07
2018-10-01T08:09:50.004Z,7.80
2018-10-01T08:12:20.305Z,8.83
2018-10-01T08:14:50.547Z,9.67
2018-10-01T08:17:21.394Z,13.80
2018-10-01T08:19:51.894Z,9.77
2018-10-01T08:22:21.547Z,8.00
2018-10-01T08:24:52.444Z,9.10
2018-10-01T08:27:23.181Z,16.80
2018-10-01T08:29:52.930Z,8.20
2018-10-01T08:32:25.756Z,7.17
2018-10-01T08:35:01.375Z,11.23
2018-10-01T08:37:31.094Z,8.70
2018-10-01T08:40:01.988Z,7.00
2018-10-01T08:42:32.789Z,11.03
2018-10-01T08:45:06.442Z,8.37
2018-10-01T08:47:37.128Z,9.23
2018-10-01T08:50:17.826Z,11.40
2018-10-01T08:53:04.594Z,16.13
2018-10-01T08:55:35.586Z,19.20
2018-10-01T08:58:06.129Z,13.37
2018-10-01T09:00:38.343Z,11.73
2018-10-01T09:03:08.594Z,8.67
2018-10-01T09:05:38.608Z,12.63
2018-10-01T09:08:08.398Z,8.53
2018-10-01T09:10:42.113Z,8.77
2018-10-01T09:13:12.009Z,9.53
2018-10-01T09:15:46.585Z,10.00
2018-10-01T09:18:16.690Z,11.40
2018-10-01T09:20:47.254Z,12.53
2018-10-01T09:23:23.647Z,12.00
2018-10-01T09:25:54.069Z,12.77
2018-10-01T09:28:24.345Z,22.67
2018-10-01T09:30:58.495Z,16.77
2018-10-01T09:33:28.863Z,13.07
2018-10-01T09:35:59.330Z,11.70
2018-10-01T09:38:28.962Z,12.90
2018-10-01T09:40:58.987Z,15.43
2018-10-01T09:43:28.490Z,8.60
2018-10-01T09:45:58.063Z,12.73
2018-10-01T09:48:27.507Z,9.93
2018-10-01T09:50:57.437Z,18.47
2018-10-01T09:53:33.657Z,38.77
2018-10-01T09:56:04.777Z,28.67
2018-10-01T09:58:36.325Z,19.20
2018-10-01T10:01:09.945Z,12.20
2018-10-01T10:03:40.133Z,13.10
2018-10-01T10:06:10.933Z,16.47
2018-10-01T10:08:43.833Z,14.70
2018-10-01T10:11:14.019Z,16.17
2018-10-01T10:13:43.693Z,11.37
2018-10-01T10:16:15.120Z,10.53
2018-10-01T10:18:45.190Z,8.63
2018-10-01T10:21:15.789Z,10.17
2018-10-01T10:23:46.705Z,11.43
2018-10-01T10:26:17.243Z,7.23
2018-10-01T10:28:52.128Z,9.93
2018-10-01T10:31:22.157Z,15.97
2018-10-01T10:33:52.008Z,13.53
2018-10-01T10:36:22.118Z,11.77
2018-10-01T10:38:52.416Z,9.47
2018-10-01T10:41:22.394Z,8.17
2018-10-01T10:43:52.789Z,12.23
2018-10-01T10:46:23.257Z,9.80
2018-10-01T10:48:53.749Z,9.87
2018-10-01T10:51:24.734Z,8.27
2018-10-01T10:53:54.666Z,11.73
2018-10-01T10:56:24.778Z,14.03
2018-10-01T10:58:54.581Z,14.47
2018-10-01T11:01:29.706Z,12.20
2018-10-01T11:04:00.098Z,9.40
2018-10-01T11:06:29.916Z,13.40
2018-10-01T11:08:59.480Z,32.30
2018-10-01T11:11:29.285Z,25.60
2018-10-01T11:13:58.831Z,30.87
2018-10-01T11:16:28.384Z,26.27
2018-10-01T11:18:58.024Z,52.77
2018-10-01T11:21:27.535Z,45.27
2018-10-01T11:23:57.974Z,23.40
2018-10-01T11:26:28.171Z,24.47
2018-10-01T11:28:58.432Z,16.43
2018-10-01T11:31:28.273Z,18.53
2018-10-01T11:34:03.498Z,9.30
2018-10-01T11:36:34.253Z,9.53
2018-10-01T11:39:06.461Z,11.77
2018-10-01T11:41:36.859Z,10.90
2018-10-01T11:44:07.322Z,13.13
2018-10-01T11:46:37.806Z,10.37
2018-10-01T11:49:07.965Z,11.43
2018-10-01T11:51:37.722Z,14.23
2018-10-01T11:54:07.268Z,18.50
2018-10-01T11:56:36.761Z,22.27
2018-10-01T11:59:06.308Z,10.37
2018-10-01T12:01:37.284Z,14.60
2018-10-01T12:04:07.652Z,15.13
2018-10-01T12:06:37.173Z,13.87
2018-10-01T12:09:09.562Z,13.57
2018-10-01T12:11:39.350Z,11.90
2018-10-01T12:14:11.761Z,16.20
2018-10-01T12:16:41.504Z,13.13
2018-10-01T12:19:12.670Z,11.50
2018-10-01T12:21:43.010Z,12.67
2018-10-01T12:24:13.986Z,14.20
2018-10-01T12:26:44.687Z,13.30
2018-10-01T12:29:15.320Z,13.53
2018-10-01T12:31:44.893Z,14.03
2018-10-01T12:34:16.436Z,11.40
2018-10-01T12:36:46.271Z,12.87
2018-10-01T12:39:17.116Z,16.90
2018-10-01T12:41:46.542Z,19.50
2018-10-01T12:44:16.462Z,17.40
2018-10-01T12:46:47.576Z,12.77
2018-10-01T12:49:17.527Z,10.40
2018-10-01T12:51:47.875Z,16.10
2018-10-01T12:54:17.735Z,18.77
2018-10-01T12:56:47.706Z,13.20
2018-10-01T12:59:18.051Z,13.43
2018-10-01T13:01:48.361Z,11.43
2018-10-01T13:04:19.156Z,16.23
2018-10-01T13:06:48.959Z,13.83
2018-10-01T13:09:20.349Z,20.93
2018-10-01T13:11:50.496Z,12.37
2018-10-01T13:14:21.710Z,11.63
2018-10-01T13:16:52.276Z,15.23
2018-10-01T13:19:23.386Z,11.67
2018-10-01T13:21:54.574Z,12.10
2018-10-01T13:24:26.646Z,12.17
2018-10-01T13:27:00.303Z,12.60
2018-10-01T13:29:30.063Z,13.03
2018-10-01T13:32:01.178Z,10.80
2018-10-01T13:34:32.443Z,10.47
2018-10-01T13:37:02.169Z,15.60
2018-10-01T13:39:32.440Z,16.40
2018-10-01T13:42:04.425Z,13.80
2018-10-01T13:44:35.301Z,13.77
2018-10-01T13:47:06.158Z,16.17
2018-10-01T13:49:35.754Z,12.23
2018-10-01T13:52:05.529Z,11.80
2018-10-01T13:54:35.501Z,12.87
2018-10-01T13:57:07.583Z,12.50
2018-10-01T13:59:41.573Z,15.13
2018-10-01T14:02:17.178Z,11.93
2018-10-01T14:04:46.892Z,14.13
2018-10-01T14:07:18.114Z,13.70
2018-10-01T14:09:48.622Z,12.93
2018-10-01T14:12:19.913Z,12.93
2018-10-01T14:14:50.058Z,17.77
2018-10-01T14:17:20.055Z,14.17
2018-10-01T14:19:50.682Z,15.00
2018-10-01T14:22:20.605Z,18.93
2018-10-01T14:24:51.374Z,18.77
2018-10-01T14:27:21.402Z,16.80
2018-10-01T14:29:53.881Z,16.93
2018-10-01T14:32:24.306Z,12.80
2018-10-01T14:34:55.470Z,17.70
2018-10-01T14:37:25.993Z,14.33
2018-10-01T14:39:55.675Z,18.80
2018-10-01T14:42:34.928Z,15.80
2018-10-01T14:45:06.500Z,16.53
2018-10-01T14:47:37.267Z,15.33
2018-10-01T14:50:08.153Z,18.17
2018-10-01T14:52:39.189Z,19.50
2018-10-01T14:55:10.245Z,16.53
2018-10-01T14:57:41.589Z,15.93
2018-10-01T15:00:11.891Z,18.23
2018-10-01T15:02:42.325Z,20.30
2018-10-01T15:05:14.357Z,18.57
2018-10-01T15:07:44.005Z,17.73
2018-10-01T15:10:15.221Z,39.27
2018-10-01T15:12:45.473Z,63.73
2018-10-01T15:15:19.225Z,28.10
2018-10-01T15:17:50.883Z,23.00
2018-10-01T15:20:20.603Z,20.40
2018-10-01T15:22:51.851Z,19.03
2018-10-01T15:25:22.640Z,21.50
2018-10-01T15:27:53.489Z,23.20
2018-10-01T15:30:23.215Z,24.23
2018-10-01T15:32:53.400Z,25.90
2018-10-01T15:35:24.198Z,27.63
2018-10-01T15:37:54.086Z,28.67
2018-10-01T15:40:26.273Z,25.77
2018-10-01T15:42:56.650Z,21.17
2018-10-01T15:45:26.394Z,23.90
2018-10-01T15:47:56.241Z,23.00
2018-10-01T15:50:26.075Z,24.83
2018-10-01T15:52:55.841Z,22.03
2018-10-01T15:55:31.813Z,23.33
2018-10-01T15:58:02.539Z,26.33
2018-10-01T16:00:33.333Z,33.83
2018-10-01T16:03:07.059Z,22.53
2018-10-01T16:05:37.363Z,25.57
2018-10-01T16:08:07.347Z,23.73
2018-10-01T16:10:43.017Z,27.73
2018-10-01T16:13:17.158Z,26.33
2018-10-01T16:15:47.085Z,31.47
2018-10-01T16:18:18.263Z,27.17
2018-10-01T16:20:47.843Z,25.50
2018-10-01T16:23:17.790Z,27.30
2018-10-01T16:25:47.486Z,30.53
2018-10-01T16:28:17.524Z,28.47
2018-10-01T16:30:48.272Z,26.07
2018-10-01T16:33:18.021Z,27.20
2018-10-01T16:35:52.104Z,25.57
2018-10-01T16:38:23.183Z,33.00
2018-10-01T16:40:53.944Z,27.00
2018-10-01T16:43:25.157Z,31.60
2018-10-01T16:45:55.813Z,32.80
2018-10-01T16:48:25.636Z,27.10
2018-10-01T16:50:56.507Z,32.97
2018-10-01T16:53:27.792Z,27.60
2018-10-01T16:55:58.175Z,25.77
2018-10-01T16:58:28.078Z,28.80
2018-10-01T17:00:58.631Z,28.10
2018-10-01T17:03:28.636Z,28.20
2018-10-01T17:06:02.319Z,26.37
2018-10-01T17:08:36.750Z,28.37
2018-10-01T17:11:07.789Z,32.13
2018-10-01T17:13:37.999Z,25.77
2018-10-01T17:16:08.065Z,28.83
2018-10-01T17:18:39.386Z,31.80
2018-10-01T17:21:10.204Z,27.80
2018-10-01T17:23:41.608Z,31.13
2018-10-01T17:26:12.810Z,27.60
2018-10-01T17:28:48.141Z,30.53
2018-10-01T17:31:18.193Z,31.73
2018-10-01T17:33:48.550Z,34.90
2018-10-01T17:36:18.620Z,32.90
2018-10-01T17:38:48.225Z,32.87
2018-10-01T17:41:18.470Z,34.90
2018-10-01T17:43:48.483Z,35.47
2018-10-01T17:46:17.977Z,35.17
2018-10-01T17:48:47.971Z,36.07
2018-10-01T17:51:17.799Z,34.87
2018-10-01T17:53:47.598Z,38.93
2018-10-01T17:56:17.408Z,40.83
2018-10-01T17:58:47.281Z,37.57
2018-10-01T18:01:18.593Z,39.80
2018-10-01T18:03:50.557Z,40.50
2018-10-01T18:06:20.094Z,35.60
2018-10-01T18:08:49.915Z,32.10
2018-10-01T18:11:19.472Z,35.00
2018-10-01T18:13:49.070Z,39.87
2018-10-01T18:16:18.800Z,34.63
2018-10-01T18:18:48.872Z,38.37
2018-10-01T18:21:19.647Z,38.87
2018-10-01T18:23:49.901Z,32.67
2018-10-01T18:26:20.083Z,35.57
2018-10-01T18:29:07.630Z,28.93
2018-10-01T18:31:37.676Z,33.10
2018-10-01T18:34:08.190Z,28.80
2018-10-01T18:36:40.217Z,39.00
2018-10-01T18:39:18.614Z,32.77
2018-10-01T18:41:49.296Z,27.30
2018-10-01T18:44:25.467Z,31.97
2018-10-01T18:46:56.522Z,31.13
2018-10-01T18:49:27.488Z,110.80
2018-10-01T18:51:57.339Z,29.50
2018-10-01T18:54:27.534Z,29.30
2018-10-01T18:56:57.218Z,26.23
2018-10-01T18:59:26.894Z,30.30
2018-10-01T19:01:56.677Z,37.33
2018-10-01T19:04:27.053Z,29.47
2018-10-01T19:06:57.233Z,30.90
2018-10-01T19:09:27.406Z,32.57
2018-10-01T19:11:57.632Z,30.87
2018-10-01T19:14:27.998Z,35.53
2018-10-01T19:16:57.919Z,33.70
2018-10-01T19:19:27.869Z,31.00
2018-10-01T19:21:57.710Z,33.53
2018-10-01T19:24:28.830Z,31.37
2018-10-01T19:26:59.273Z,31.10
2018-10-01T19:29:29.140Z,33.20
2018-10-01T19:31:59.332Z,31.27
2018-10-01T19:34:29.069Z,27.80
2018-10-01T19:37:00.212Z,21.73
2018-10-01T19:39:29.918Z,23.70
2018-10-01T19:42:00.724Z,19.47
2018-10-01T19:44:31.783Z,21.80
2018-10-01T19:47:03.234Z,21.20
2018-10-01T19:49:33.460Z,21.33
2018-10-01T19:52:03.797Z,21.97
2018-10-01T19:54:34.953Z,21.23
2018-10-01T19:57:05.668Z,19.30
2018-10-01T19:59:35.201Z,18.37
2018-10-01T20:02:06.031Z,23.47
2018-10-01T20:04:35.641Z,14.93
2018-10-01T20:07:05.726Z,17.60
2018-10-01T20:09:36.600Z,18.13
2018-10-01T20:12:06.932Z,16.97
2018-10-01T20:14:37.528Z,17.37
2018-10-01T20:17:07.397Z,16.37
2018-10-01T20:19:37.204Z,19.77
2018-10-01T20:22:10.036Z,29.10
2018-10-01T20:24:42.932Z,21.83
2018-10-01T20:27:13.909Z,19.70
2018-10-01T20:29:44.770Z,22.27
2018-10-01T20:32:19.480Z,14.83
2018-10-01T20:34:49.926Z,18.03
2018-10-01T20:37:21.329Z,15.13
2018-10-01T20:39:52.314Z,23.47
2018-10-01T20:42:22.913Z,18.27
2018-10-01T20:44:52.785Z,17.90
2018-10-01T20:47:24.585Z,18.43
2018-10-01T20:49:54.578Z,18.90
2018-10-01T20:52:25.270Z,20.40
2018-10-01T20:54:55.342Z,23.00
2018-10-01T20:57:31.017Z,22.20
2018-10-01T21:00:01.317Z,22.47
2018-10-01T21:02:31.426Z,23.90
2018-10-01T21:05:02.624Z,21.37
2018-10-01T21:07:32.309Z,19.27
2018-10-01T21:10:02.968Z,19.33
2018-10-01T21:12:32.646Z,20.03
2018-10-01T21:15:03.160Z,19.50
2018-10-01T21:17:33.627Z,16.73
2018-10-01T21:20:04.938Z,17.37
2018-10-01T21:22:36.192Z,18.50
2018-10-01T21:25:07.236Z,17.07
2018-10-01T21:27:37.613Z,14.73
2018-10-01T21:30:08.308Z,18.73
2018-10-01T21:32:39.527Z,14.23
2018-10-01T21:35:09.617Z,15.13
2018-10-01T21:37:40.030Z,15.00
2018-10-01T21:40:11.503Z,19.50
2018-10-01T21:42:42.622Z,14.40
2018-10-01T21:45:14.609Z,15.73
2018-10-01T21:47:45.242Z,14.60
2018-10-01T21:50:15.989Z,14.27
2018-10-01T21:52:46.109Z,15.87
2018-10-01T21:55:21.297Z,14.80
2018-10-01T21:57:56.941Z,18.17
2018-10-01T22:00:26.560Z,16.47
2018-10-01T22:02:56.874Z,16.00
2018-10-01T22:05:27.426Z,14.40
2018-10-01T22:07:57.197Z,17.07
2018-10-01T22:10:27.043Z,15.67
2018-10-01T22:12:56.611Z,14.93
2018-10-01T22:15:31.000Z,15.97
2018-10-01T22:18:01.582Z,18.03
2018-10-01T22:20:32.942Z,14.03
2018-10-01T22:23:03.241Z,21.20
2018-10-01T22:25:33.203Z,17.03
2018-10-01T22:28:03.117Z,15.47
2018-10-01T22:30:33.524Z,17.20
2018-10-01T22:33:05.166Z,17.40
2018-10-01T22:35:35.486Z,19.40
2018-10-01T22:38:06.076Z,18.90
2018-10-01T22:40:35.636Z,19.37
2018-10-01T22:43:05.302Z,18.13
2018-10-01T22:45:36.073Z,19.37
2018-10-01T22:48:06.457Z,15.80
2018-10-01T22:50:38.424Z,19.30
2018-10-01T22:53:09.736Z,15.90
2018-10-01T22:55:40.101Z,17.87
2018-10-01T22:58:11.476Z,18.10
2018-10-01T23:00:41.010Z,19.67
2018-10-01T23:03:11.201Z,18.07
2018-10-01T23:05:40.759Z,14.83
2018-10-01T23:08:10.454Z,19.60
2018-10-01T23:10:40.884Z,18.47
2018-10-01T23:13:11.089Z,20.60
2018-10-01T23:15:40.829Z,19.80
2018-10-01T23:18:10.456Z,17.20
2018-10-01T23:20:42.448Z,18.03
2018-10-01T23:23:16.370Z,15.30
2018-10-01T23:25:47.599Z,15.27
2018-10-01T23:28:17.190Z,16.50
2018-10-01T23:30:47.497Z,14.07
2018-10-01T23:33:17.427Z,15.10
2018-10-01T23:35:47.702Z,13.97
2018-10-01T23:38:17.686Z,17.43
2018-10-01T23:40:48.218Z,16.43
2018-10-01T23:43:18.846Z,14.73
2018-10-01T23:45:48.575Z,13.23
2018-10-01T23:48:18.279Z,14.17
2018-10-01T23:50:49.368Z,14.80
2018-10-01T23:53:19.401Z,13.93
2018-10-01T23:55:50.314Z,16.20
2018-10-01T23:58:19.811Z,14.40
